sensor_id;sensor_type;location;lat;lon;timestamp;temperature;humidity
66373;SHT30;53168;51.146;17.120;2023-06-01T00:00:45;13.02;61.85
66373;SHT30;53168;51.146;17.120;2023-06-01T00:03:41;13.07;61.95
66373;SHT30;53168;51.146;17.120;2023-06-01T00:06:15;13.12;62.01
66373;SHT30;53168;51.146;17.120;2023-06-01T00:08:52;13.17;62.16
66373;SHT30;53168;51.146;17.120;2023-06-01T00:11:54;13.26;62.28
66373;SHT30;53168;51.146;17.120;2023-06-01T00:14:54;13.39;62.20
66373;SHT30;53168;51.146;17.120;2023-06-01T00:17:28;13.47;62.21
66373;SHT30;53168;51.146;17.120;2023-06-01T00:23:00;13.68;62.52
66373;SHT30;53168;51.146;17.120;2023-06-01T00:25:49;13.80;62.52
66373;SHT30;53168;51.146;17.120;2023-06-01T00:28:23;13.88;62.52
66373;SHT30;53168;51.146;17.120;2023-06-01T00:30:57;13.93;62.31
66373;SHT30;53168;51.146;17.120;2023-06-01T00:33:32;13.92;62.25
66373;SHT30;53168;51.146;17.120;2023-06-01T00:36:08;13.90;62.03
66373;SHT30;53168;51.146;17.120;2023-06-01T00:38:44;13.85;61.99
66373;SHT30;53168;51.146;17.120;2023-06-01T00:41:18;13.80;62.18
66373;SHT30;53168;51.146;17.120;2023-06-01T00:44:36;13.75;62.48
66373;SHT30;53168;51.146;17.120;2023-06-01T00:47:41;13.74;62.45
66373;SHT30;53168;51.146;17.120;2023-06-01T00:50:41;13.74;62.81
66373;SHT30;53168;51.146;17.120;2023-06-01T00:53:34;13.74;62.59
66373;SHT30;53168;51.146;17.120;2023-06-01T00:56:10;13.69;62.51
66373;SHT30;53168;51.146;17.120;2023-06-01T00:58:48;13.63;62.64
66373;SHT30;53168;51.146;17.120;2023-06-01T01:01:24;13.53;62.83
66373;SHT30;53168;51.146;17.120;2023-06-01T01:04:03;13.42;62.95
66373;SHT30;53168;51.146;17.120;2023-06-01T01:09:30;13.20;63.22
66373;SHT30;53168;51.146;17.120;2023-06-01T01:12:17;13.09;63.22
66373;SHT30;53168;51.146;17.120;2023-06-01T01:15:01;12.93;63.30
66373;SHT30;53168;51.146;17.120;2023-06-01T01:17:46;12.81;63.48
66373;SHT30;53168;51.146;17.120;2023-06-01T01:20:27;12.69;63.66
66373;SHT30;53168;51.146;17.120;2023-06-01T01:23:28;12.58;63.88
66373;SHT30;53168;51.146;17.120;2023-06-01T01:26:27;12.50;64.02
66373;SHT30;53168;51.146;17.120;2023-06-01T01:29:17;12.44;64.25
66373;SHT30;53168;51.146;17.120;2023-06-01T01:31:57;12.36;64.36
66373;SHT30;53168;51.146;17.120;2023-06-01T01:34:36;12.29;64.53
66373;SHT30;53168;51.146;17.120;2023-06-01T01:37:12;12.25;64.69
66373;SHT30;53168;51.146;17.120;2023-06-01T01:39:46;12.21;64.84
66373;SHT30;53168;51.146;17.120;2023-06-01T01:42:20;12.15;64.99
66373;SHT30;53168;51.146;17.120;2023-06-01T01:44:54;12.08;65.20
66373;SHT30;53168;51.146;17.120;2023-06-01T01:47:39;12.02;65.31
66373;SHT30;53168;51.146;17.120;2023-06-01T01:50:26;11.96;65.46
66373;SHT30;53168;51.146;17.120;2023-06-01T01:53:06;11.92;65.78
66373;SHT30;53168;51.146;17.120;2023-06-01T01:55:41;11.87;65.86
66373;SHT30;53168;51.146;17.120;2023-06-01T01:58:18;11.82;66.00
66373;SHT30;53168;51.146;17.120;2023-06-01T02:00:53;11.78;66.09
66373;SHT30;53168;51.146;17.120;2023-06-01T02:03:28;11.75;66.17
66373;SHT30;53168;51.146;17.120;2023-06-01T02:06:04;11.70;66.42
66373;SHT30;53168;51.146;17.120;2023-06-01T02:08:38;11.63;66.52
66373;SHT30;53168;51.146;17.120;2023-06-01T02:11:12;11.60;66.58
66373;SHT30;53168;51.146;17.120;2023-06-01T02:13:46;11.58;66.68
66373;SHT30;53168;51.146;17.120;2023-06-01T02:16:20;11.53;66.80
66373;SHT30;53168;51.146;17.120;2023-06-01T02:18:55;11.48;66.84
66373;SHT30;53168;51.146;17.120;2023-06-01T02:21:29;11.44;66.88
66373;SHT30;53168;51.146;17.120;2023-06-01T02:24:05;11.41;67.06
66373;SHT30;53168;51.146;17.120;2023-06-01T02:26:40;11.39;67.12
66373;SHT30;53168;51.146;17.120;2023-06-01T02:29:15;11.35;67.21
66373;SHT30;53168;51.146;17.120;2023-06-01T02:31:52;11.31;67.36
66373;SHT30;53168;51.146;17.120;2023-06-01T02:34:25;11.29;67.49
66373;SHT30;53168;51.146;17.120;2023-06-01T02:36:59;11.27;67.63
66373;SHT30;53168;51.146;17.120;2023-06-01T02:39:34;11.27;67.77
66373;SHT30;53168;51.146;17.120;2023-06-01T02:42:09;11.27;67.89
66373;SHT30;53168;51.146;17.120;2023-06-01T02:44:43;11.26;68.01
66373;SHT30;53168;51.146;17.120;2023-06-01T02:47:19;11.26;67.93
66373;SHT30;53168;51.146;17.120;2023-06-01T02:49:54;11.27;67.98
66373;SHT30;53168;51.146;17.120;2023-06-01T02:52:35;11.26;68.00
66373;SHT30;53168;51.146;17.120;2023-06-01T02:55:14;11.25;68.03
66373;SHT30;53168;51.146;17.120;2023-06-01T02:58:03;11.26;68.07
66373;SHT30;53168;51.146;17.120;2023-06-01T03:00:46;11.27;68.04
66373;SHT30;53168;51.146;17.120;2023-06-01T03:03:22;11.29;68.10
66373;SHT30;53168;51.146;17.120;2023-06-01T03:05:56;11.30;68.12
66373;SHT30;53168;51.146;17.120;2023-06-01T03:09:20;11.28;68.16
66373;SHT30;53168;51.146;17.120;2023-06-01T03:12:00;11.29;68.23
66373;SHT30;53168;51.146;17.120;2023-06-01T03:14:35;11.30;68.28
66373;SHT30;53168;51.146;17.120;2023-06-01T03:17:09;11.31;68.47
66373;SHT30;53168;51.146;17.120;2023-06-01T03:19:47;11.30;68.52
66373;SHT30;53168;51.146;17.120;2023-06-01T03:22:25;11.32;68.59
66373;SHT30;53168;51.146;17.120;2023-06-01T03:24:59;11.35;68.60
66373;SHT30;53168;51.146;17.120;2023-06-01T03:27:38;11.38;68.66
66373;SHT30;53168;51.146;17.120;2023-06-01T03:30:13;11.41;68.73
66373;SHT30;53168;51.146;17.120;2023-06-01T03:32:47;11.45;68.84
66373;SHT30;53168;51.146;17.120;2023-06-01T03:35:22;11.51;68.90
66373;SHT30;53168;51.146;17.120;2023-06-01T03:37:56;11.57;68.95
66373;SHT30;53168;51.146;17.120;2023-06-01T03:40:30;11.62;69.00
66373;SHT30;53168;51.146;17.120;2023-06-01T03:43:04;11.68;69.00
66373;SHT30;53168;51.146;17.120;2023-06-01T03:45:37;11.74;69.00
66373;SHT30;53168;51.146;17.120;2023-06-01T03:48:11;11.81;69.09
66373;SHT30;53168;51.146;17.120;2023-06-01T03:50:45;11.87;69.03
66373;SHT30;53168;51.146;17.120;2023-06-01T03:53:19;11.92;69.06
66373;SHT30;53168;51.146;17.120;2023-06-01T03:55:54;11.99;69.00
66373;SHT30;53168;51.146;17.120;2023-06-01T03:58:35;12.07;68.93
66373;SHT30;53168;51.146;17.120;2023-06-01T04:01:09;12.14;68.92
66373;SHT30;53168;51.146;17.120;2023-06-01T04:03:48;12.16;68.91
66373;SHT30;53168;51.146;17.120;2023-06-01T04:06:22;12.19;68.90
66373;SHT30;53168;51.146;17.120;2023-06-01T04:09:00;12.23;68.87
66373;SHT30;53168;51.146;17.120;2023-06-01T04:11:40;12.29;68.72
66373;SHT30;53168;51.146;17.120;2023-06-01T04:14:14;12.36;68.73
66373;SHT30;53168;51.146;17.120;2023-06-01T04:16:48;12.43;68.80
66373;SHT30;53168;51.146;17.120;2023-06-01T04:19:22;12.52;68.78
66373;SHT30;53168;51.146;17.120;2023-06-01T04:22:02;12.62;68.57
66373;SHT30;53168;51.146;17.120;2023-06-01T04:24:37;12.70;68.42
66373;SHT30;53168;51.146;17.120;2023-06-01T04:27:11;12.77;68.43
66373;SHT30;53168;51.146;17.120;2023-06-01T04:29:46;12.85;68.49
66373;SHT30;53168;51.146;17.120;2023-06-01T04:32:20;12.92;68.41
66373;SHT30;53168;51.146;17.120;2023-06-01T04:34:55;12.99;68.33
66373;SHT30;53168;51.146;17.120;2023-06-01T04:37:30;13.09;68.18
66373;SHT30;53168;51.146;17.120;2023-06-01T04:40:09;13.18;68.16
66373;SHT30;53168;51.146;17.120;2023-06-01T04:42:46;13.27;68.37
66373;SHT30;53168;51.146;17.120;2023-06-01T04:45:23;13.40;68.41
66373;SHT30;53168;51.146;17.120;2023-06-01T04:47:57;13.51;67.99
66373;SHT30;53168;51.146;17.120;2023-06-01T04:50:39;13.65;68.06
66373;SHT30;53168;51.146;17.120;2023-06-01T04:53:13;13.82;68.10
66373;SHT30;53168;51.146;17.120;2023-06-01T04:55:46;13.98;67.87
66373;SHT30;53168;51.146;17.120;2023-06-01T04:58:20;14.12;67.89
66373;SHT30;53168;51.146;17.120;2023-06-01T05:00:54;14.23;67.46
66373;SHT30;53168;51.146;17.120;2023-06-01T05:03:29;14.31;67.33
66373;SHT30;53168;51.146;17.120;2023-06-01T05:06:02;14.38;67.10
66373;SHT30;53168;51.146;17.120;2023-06-01T05:08:36;14.48;66.99
66373;SHT30;53168;51.146;17.120;2023-06-01T05:11:11;14.59;66.83
66373;SHT30;53168;51.146;17.120;2023-06-01T05:13:45;14.68;66.75
66373;SHT30;53168;51.146;17.120;2023-06-01T05:16:19;14.77;66.63
66373;SHT30;53168;51.146;17.120;2023-06-01T05:18:54;14.89;66.54
66373;SHT30;53168;51.146;17.120;2023-06-01T05:21:28;15.02;66.15
66373;SHT30;53168;51.146;17.120;2023-06-01T05:24:04;15.16;65.93
66373;SHT30;53168;51.146;17.120;2023-06-01T05:26:38;15.23;65.37
66373;SHT30;53168;51.146;17.120;2023-06-01T05:29:12;15.31;64.91
66373;SHT30;53168;51.146;17.120;2023-06-01T05:31:48;15.41;64.43
66373;SHT30;53168;51.146;17.120;2023-06-01T05:34:22;15.52;64.39
66373;SHT30;53168;51.146;17.120;2023-06-01T05:36:56;15.65;64.16
66373;SHT30;53168;51.146;17.120;2023-06-01T05:39:30;15.77;63.95
66373;SHT30;53168;51.146;17.120;2023-06-01T05:42:06;15.88;63.56
66373;SHT30;53168;51.146;17.120;2023-06-01T05:44:41;16.02;63.40
66373;SHT30;53168;51.146;17.120;2023-06-01T05:47:15;16.17;62.98
66373;SHT30;53168;51.146;17.120;2023-06-01T05:49:49;16.32;62.69
66373;SHT30;53168;51.146;17.120;2023-06-01T05:52:24;16.49;62.47
66373;SHT30;53168;51.146;17.120;2023-06-01T05:54:57;16.65;61.68
66373;SHT30;53168;51.146;17.120;2023-06-01T05:57:31;16.82;61.52
66373;SHT30;53168;51.146;17.120;2023-06-01T06:00:07;16.99;61.14
66373;SHT30;53168;51.146;17.120;2023-06-01T06:02:46;17.19;61.01
66373;SHT30;53168;51.146;17.120;2023-06-01T06:05:20;17.37;60.07
66373;SHT30;53168;51.146;17.120;2023-06-01T06:07:56;17.57;59.74
66373;SHT30;53168;51.146;17.120;2023-06-01T06:10:31;17.75;58.67
66373;SHT30;53168;51.146;17.120;2023-06-01T06:13:11;17.93;58.03
66373;SHT30;53168;51.146;17.120;2023-06-01T06:16:23;18.13;57.52
66373;SHT30;53168;51.146;17.120;2023-06-01T06:30:00;18.96;55.16
66373;SHT30;53168;51.146;17.120;2023-06-01T06:32:51;19.11;55.21
66373;SHT30;53168;51.146;17.120;2023-06-01T06:35:43;19.25;54.35
66373;SHT30;53168;51.146;17.120;2023-06-01T06:38:42;19.39;53.80
66373;SHT30;53168;51.146;17.120;2023-06-01T06:41:35;19.51;53.59
66373;SHT30;53168;51.146;17.120;2023-06-01T06:47:38;19.81;53.68
66373;SHT30;53168;51.146;17.120;2023-06-01T06:50:33;20.01;53.54
66373;SHT30;53168;51.146;17.120;2023-06-01T06:53:19;20.20;53.17
66373;SHT30;53168;51.146;17.120;2023-06-01T06:55:58;20.34;52.55
66373;SHT30;53168;51.146;17.120;2023-06-01T06:58:34;20.44;52.20
66373;SHT30;53168;51.146;17.120;2023-06-01T07:01:09;20.54;51.31
66373;SHT30;53168;51.146;17.120;2023-06-01T07:03:45;20.69;51.44
66373;SHT30;53168;51.146;17.120;2023-06-01T07:06:20;20.84;51.18
66373;SHT30;53168;51.146;17.120;2023-06-01T07:08:54;20.99;51.39
66373;SHT30;53168;51.146;17.120;2023-06-01T07:11:29;21.14;50.99
66373;SHT30;53168;51.146;17.120;2023-06-01T07:14:03;21.19;50.91
66373;SHT30;53168;51.146;17.120;2023-06-01T07:16:37;21.34;51.06
66373;SHT30;53168;51.146;17.120;2023-06-01T07:19:11;21.47;49.22
66373;SHT30;53168;51.146;17.120;2023-06-01T07:21:45;21.47;47.81
66373;SHT30;53168;51.146;17.120;2023-06-01T07:24:20;21.51;48.17
66373;SHT30;53168;51.146;17.120;2023-06-01T07:26:54;21.63;47.96
66373;SHT30;53168;51.146;17.120;2023-06-01T07:29:28;21.78;47.58
66373;SHT30;53168;51.146;17.120;2023-06-01T07:32:03;21.89;46.83
66373;SHT30;53168;51.146;17.120;2023-06-01T07:34:38;21.96;45.32
66373;SHT30;53168;51.146;17.120;2023-06-01T07:37:12;22.02;45.01
66373;SHT30;53168;51.146;17.120;2023-06-01T07:39:48;22.06;43.87
66373;SHT30;53168;51.146;17.120;2023-06-01T07:42:22;22.09;43.83
66373;SHT30;53168;51.146;17.120;2023-06-01T07:44:57;22.18;45.16
66373;SHT30;53168;51.146;17.120;2023-06-01T07:47:31;22.25;43.93
66373;SHT30;53168;51.146;17.120;2023-06-01T07:50:12;22.34;44.31
66373;SHT30;53168;51.146;17.120;2023-06-01T07:52:46;22.44;44.03
66373;SHT30;53168;51.146;17.120;2023-06-01T07:55:23;22.44;43.33
66373;SHT30;53168;51.146;17.120;2023-06-01T07:57:59;22.50;43.90
66373;SHT30;53168;51.146;17.120;2023-06-01T08:00:33;22.63;43.91
66373;SHT30;53168;51.146;17.120;2023-06-01T08:03:18;22.72;43.85
66373;SHT30;53168;51.146;17.120;2023-06-01T08:06:03;22.76;42.73
66373;SHT30;53168;51.146;17.120;2023-06-01T08:09:02;22.83;41.88
66373;SHT30;53168;51.146;17.120;2023-06-01T08:11:37;22.85;41.69
66373;SHT30;53168;51.146;17.120;2023-06-01T08:14:11;22.93;42.15
66373;SHT30;53168;51.146;17.120;2023-06-01T08:16:54;23.05;41.90
66373;SHT30;53168;51.146;17.120;2023-06-01T08:19:28;23.14;41.41
66373;SHT30;53168;51.146;17.120;2023-06-01T08:22:07;23.21;40.54
66373;SHT30;53168;51.146;17.120;2023-06-01T08:24:43;23.33;39.82
66373;SHT30;53168;51.146;17.120;2023-06-01T08:27:20;23.42;40.08
66373;SHT30;53168;51.146;17.120;2023-06-01T08:29:55;23.53;39.27
66373;SHT30;53168;51.146;17.120;2023-06-01T08:32:31;23.62;39.25
66373;SHT30;53168;51.146;17.120;2023-06-01T08:35:10;23.71;37.89
66373;SHT30;53168;51.146;17.120;2023-06-01T08:37:44;23.72;37.89
66373;SHT30;53168;51.146;17.120;2023-06-01T08:40:23;23.72;37.17
66373;SHT30;53168;51.146;17.120;2023-06-01T08:42:59;23.75;37.66
66373;SHT30;53168;51.146;17.120;2023-06-01T08:45:42;23.80;36.51
66373;SHT30;53168;51.146;17.120;2023-06-01T08:48:20;23.82;36.46
66373;SHT30;53168;51.146;17.120;2023-06-01T08:50:58;23.85;37.00
66373;SHT30;53168;51.146;17.120;2023-06-01T08:53:34;23.92;37.31
66373;SHT30;53168;51.146;17.120;2023-06-01T08:56:36;24.07;37.09
66373;SHT30;53168;51.146;17.120;2023-06-01T08:59:14;24.20;36.63
66373;SHT30;53168;51.146;17.120;2023-06-01T09:01:51;24.38;37.47
66373;SHT30;53168;51.146;17.120;2023-06-01T09:04:27;24.58;36.64
66373;SHT30;53168;51.146;17.120;2023-06-01T09:07:05;24.74;36.48
66373;SHT30;53168;51.146;17.120;2023-06-01T09:09:44;24.82;34.80
66373;SHT30;53168;51.146;17.120;2023-06-01T09:12:54;24.87;35.15
66373;SHT30;53168;51.146;17.120;2023-06-01T09:15:28;24.94;35.22
66373;SHT30;53168;51.146;17.120;2023-06-01T09:18:08;25.07;35.12
66373;SHT30;53168;51.146;17.120;2023-06-01T09:20:45;25.22;35.00
66373;SHT30;53168;51.146;17.120;2023-06-01T09:23:25;25.24;34.17
66373;SHT30;53168;51.146;17.120;2023-06-01T09:26:09;25.21;33.99
66373;SHT30;53168;51.146;17.120;2023-06-01T09:28:56;25.17;33.46
66373;SHT30;53168;51.146;17.120;2023-06-01T09:31:41;25.21;33.58
66373;SHT30;53168;51.146;17.120;2023-06-01T09:34:18;25.27;32.75
66373;SHT30;53168;51.146;17.120;2023-06-01T09:36:55;25.31;33.33
66373;SHT30;53168;51.146;17.120;2023-06-01T09:39:37;25.39;33.60
66373;SHT30;53168;51.146;17.120;2023-06-01T09:42:11;25.48;33.28
66373;SHT30;53168;51.146;17.120;2023-06-01T09:44:46;25.56;33.35
66373;SHT30;53168;51.146;17.120;2023-06-01T09:47:20;25.56;33.50
66373;SHT30;53168;51.146;17.120;2023-06-01T09:50:02;25.64;33.32
66373;SHT30;53168;51.146;17.120;2023-06-01T09:52:37;25.75;32.82
66373;SHT30;53168;51.146;17.120;2023-06-01T09:55:15;25.71;32.88
66373;SHT30;53168;51.146;17.120;2023-06-01T09:57:52;25.82;33.06
66373;SHT30;53168;51.146;17.120;2023-06-01T10:00:48;25.99;33.03
66373;SHT30;53168;51.146;17.120;2023-06-01T10:03:23;26.15;32.92
66373;SHT30;53168;51.146;17.120;2023-06-01T10:05:59;26.26;32.57
66373;SHT30;53168;51.146;17.120;2023-06-01T10:08:39;26.31;33.21
66373;SHT30;53168;51.146;17.120;2023-06-01T10:11:16;26.45;32.76
66373;SHT30;53168;51.146;17.120;2023-06-01T10:13:52;26.52;32.27
66373;SHT30;53168;51.146;17.120;2023-06-01T10:16:37;26.48;32.28
66373;SHT30;53168;51.146;17.120;2023-06-01T10:19:16;26.42;31.80
66373;SHT30;53168;51.146;17.120;2023-06-01T10:21:55;26.29;32.02
66373;SHT30;53168;51.146;17.120;2023-06-01T10:24:50;26.42;32.21
66373;SHT30;53168;51.146;17.120;2023-06-01T10:27:45;26.49;31.56
66373;SHT30;53168;51.146;17.120;2023-06-01T10:34:11;26.64;31.75
66373;SHT30;53168;51.146;17.120;2023-06-01T10:37:36;26.71;31.54
66373;SHT30;53168;51.146;17.120;2023-06-01T10:43:49;27.07;32.29
66373;SHT30;53168;51.146;17.120;2023-06-01T10:46:52;27.10;30.90
66373;SHT30;53168;51.146;17.120;2023-06-01T10:53:22;27.01;31.84
66373;SHT30;53168;51.146;17.120;2023-06-01T10:56:28;27.10;31.02
66373;SHT30;53168;51.146;17.120;2023-06-01T10:59:18;27.11;31.22
66373;SHT30;53168;51.146;17.120;2023-06-01T11:02:05;27.19;31.36
66373;SHT30;53168;51.146;17.120;2023-06-01T11:04:40;27.17;29.81
66373;SHT30;53168;51.146;17.120;2023-06-01T11:07:35;26.92;30.18
66373;SHT30;53168;51.146;17.120;2023-06-01T11:10:10;27.08;30.76
66373;SHT30;53168;51.146;17.120;2023-06-01T11:13:14;27.12;30.08
66373;SHT30;53168;51.146;17.120;2023-06-01T11:19:03;27.14;30.53
66373;SHT30;53168;51.146;17.120;2023-06-01T11:21:42;27.49;30.53
66373;SHT30;53168;51.146;17.120;2023-06-01T11:24:18;27.95;29.73
66373;SHT30;53168;51.146;17.120;2023-06-01T11:26:52;28.31;29.84
66373;SHT30;53168;51.146;17.120;2023-06-01T11:29:34;28.74;29.54
66373;SHT30;53168;51.146;17.120;2023-06-01T11:32:17;29.13;28.85
66373;SHT30;53168;51.146;17.120;2023-06-01T11:34:57;29.45;28.56
66373;SHT30;53168;51.146;17.120;2023-06-01T11:37:38;29.51;28.37
66373;SHT30;53168;51.146;17.120;2023-06-01T11:40:14;29.67;28.65
66373;SHT30;53168;51.146;17.120;2023-06-01T11:43:07;30.03;28.61
66373;SHT30;53168;51.146;17.120;2023-06-01T11:46:25;30.36;27.80
66373;SHT30;53168;51.146;17.120;2023-06-01T11:49:05;30.65;27.39
66373;SHT30;53168;51.146;17.120;2023-06-01T11:51:43;30.83;27.54
66373;SHT30;53168;51.146;17.120;2023-06-01T11:54:26;31.09;27.67
66373;SHT30;53168;51.146;17.120;2023-06-01T11:57:04;31.06;26.72
66373;SHT30;53168;51.146;17.120;2023-06-01T11:59:40;30.89;27.02
66373;SHT30;53168;51.146;17.120;2023-06-01T12:02:24;30.93;27.05
66373;SHT30;53168;51.146;17.120;2023-06-01T12:05:03;31.06;27.66
66373;SHT30;53168;51.146;17.120;2023-06-01T12:07:47;31.37;27.63
66373;SHT30;53168;51.146;17.120;2023-06-01T12:10:26;31.50;27.39
66373;SHT30;53168;51.146;17.120;2023-06-01T12:13:02;31.50;27.02
66373;SHT30;53168;51.146;17.120;2023-06-01T12:15:39;31.27;27.09
66373;SHT30;53168;51.146;17.120;2023-06-01T12:18:14;31.03;27.73
66373;SHT30;53168;51.146;17.120;2023-06-01T12:21:07;31.19;27.88
66373;SHT30;53168;51.146;17.120;2023-06-01T12:23:43;31.27;27.59
66373;SHT30;53168;51.146;17.120;2023-06-01T12:26:23;31.28;27.56
66373;SHT30;53168;51.146;17.120;2023-06-01T12:29:09;31.47;27.88
66373;SHT30;53168;51.146;17.120;2023-06-01T12:31:54;31.73;27.47
66373;SHT30;53168;51.146;17.120;2023-06-01T12:34:30;32.00;27.60
66373;SHT30;53168;51.146;17.120;2023-06-01T12:37:15;32.20;27.43
66373;SHT30;53168;51.146;17.120;2023-06-01T12:39:56;32.43;27.15
66373;SHT30;53168;51.146;17.120;2023-06-01T12:42:39;32.42;26.58
66373;SHT30;53168;51.146;17.120;2023-06-01T12:45:13;32.03;26.39
66373;SHT30;53168;51.146;17.120;2023-06-01T12:47:48;31.64;26.83
66373;SHT30;53168;51.146;17.120;2023-06-01T12:53:30;31.78;26.55
66373;SHT30;53168;51.146;17.120;2023-06-01T12:56:04;31.95;26.68
66373;SHT30;53168;51.146;17.120;2023-06-01T12:58:40;32.24;26.61
66373;SHT30;53168;51.146;17.120;2023-06-01T13:01:17;32.49;26.37
66373;SHT30;53168;51.146;17.120;2023-06-01T13:04:08;32.63;26.45
66373;SHT30;53168;51.146;17.120;2023-06-01T13:07:08;32.89;26.27
66373;SHT30;53168;51.146;17.120;2023-06-01T13:09:44;33.03;25.69
66373;SHT30;53168;51.146;17.120;2023-06-01T13:12:18;32.90;24.96
66373;SHT30;53168;51.146;17.120;2023-06-01T13:14:52;32.82;25.64
66373;SHT30;53168;51.146;17.120;2023-06-01T13:17:26;32.94;25.48
66373;SHT30;53168;51.146;17.120;2023-06-01T13:20:00;32.99;25.55
66373;SHT30;53168;51.146;17.120;2023-06-01T13:22:37;33.19;25.77
66373;SHT30;53168;51.146;17.120;2023-06-01T13:25:12;33.44;25.46
66373;SHT30;53168;51.146;17.120;2023-06-01T13:27:48;33.57;24.78
66373;SHT30;53168;51.146;17.120;2023-06-01T13:30:23;33.52;24.66
66373;SHT30;53168;51.146;17.120;2023-06-01T13:32:57;33.61;24.83
66373;SHT30;53168;51.146;17.120;2023-06-01T13:35:36;33.61;24.67
66373;SHT30;53168;51.146;17.120;2023-06-01T13:38:11;33.38;24.55
66373;SHT30;53168;51.146;17.120;2023-06-01T13:40:45;33.34;24.80
66373;SHT30;53168;51.146;17.120;2023-06-01T13:43:20;33.52;25.38
66373;SHT30;53168;51.146;17.120;2023-06-01T13:45:55;33.89;24.89
66373;SHT30;53168;51.146;17.120;2023-06-01T13:48:28;34.23;24.76
66373;SHT30;53168;51.146;17.120;2023-06-01T13:51:07;34.24;24.14
66373;SHT30;53168;51.146;17.120;2023-06-01T13:53:45;33.84;24.03
66373;SHT30;53168;51.146;17.120;2023-06-01T13:56:27;33.58;24.68
66373;SHT30;53168;51.146;17.120;2023-06-01T13:59:01;33.61;24.52
66373;SHT30;53168;51.146;17.120;2023-06-01T14:01:39;33.69;24.70
66373;SHT30;53168;51.146;17.120;2023-06-01T14:04:12;33.87;24.35
66373;SHT30;53168;51.146;17.120;2023-06-01T14:06:47;34.00;24.16
66373;SHT30;53168;51.146;17.120;2023-06-01T14:09:22;34.05;24.23
66373;SHT30;53168;51.146;17.120;2023-06-01T14:34:40;34.17;23.74
66373;SHT30;53168;51.146;17.120;2023-06-01T14:37:10;34.21;23.81
66373;SHT30;53168;51.146;17.120;2023-06-01T14:39:42;34.17;23.80
66373;SHT30;53168;51.146;17.120;2023-06-01T14:42:28;34.11;23.86
66373;SHT30;53168;51.146;17.120;2023-06-01T14:45:03;34.38;24.26
66373;SHT30;53168;51.146;17.120;2023-06-01T14:47:34;34.76;24.28
66373;SHT30;53168;51.146;17.120;2023-06-01T14:50:18;35.06;23.67
66373;SHT30;53168;51.146;17.120;2023-06-01T14:53:39;35.07;23.78
66373;SHT30;53168;51.146;17.120;2023-06-01T14:56:36;35.01;23.51
66373;SHT30;53168;51.146;17.120;2023-06-01T14:59:37;34.96;23.91
66373;SHT30;53168;51.146;17.120;2023-06-01T15:02:46;34.75;23.77
66373;SHT30;53168;51.146;17.120;2023-06-01T15:05:18;34.73;23.99
66373;SHT30;53168;51.146;17.120;2023-06-01T15:12:14;35.04;23.66
66373;SHT30;53168;51.146;17.120;2023-06-01T15:17:53;35.26;23.25
66373;SHT30;53168;51.146;17.120;2023-06-01T15:39:44;34.44;23.23
66373;SHT30;53168;51.146;17.120;2023-06-01T15:42:45;34.69;23.36
66373;SHT30;53168;51.146;17.120;2023-06-01T15:45:31;34.92;22.63
66373;SHT30;53168;51.146;17.120;2023-06-01T15:49:35;34.86;22.93
66373;SHT30;53168;51.146;17.120;2023-06-01T16:31:57;34.68;19.86
66373;SHT30;53168;51.146;17.120;2023-06-01T16:34:46;34.58;19.80
66373;SHT30;53168;51.146;17.120;2023-06-01T16:37:24;34.22;19.80
66373;SHT30;53168;51.146;17.120;2023-06-01T16:40:21;34.10;20.05
66373;SHT30;53168;51.146;17.120;2023-06-01T16:43:03;34.17;20.06
66373;SHT30;53168;51.146;17.120;2023-06-01T16:45:38;34.25;19.96
66373;SHT30;53168;51.146;17.120;2023-06-01T16:48:12;34.25;19.70
66373;SHT30;53168;51.146;17.120;2023-06-01T16:50:45;33.60;19.83
66373;SHT30;53168;51.146;17.120;2023-06-01T16:53:20;33.25;20.30
66373;SHT30;53168;51.146;17.120;2023-06-01T16:55:54;33.33;20.30
66373;SHT30;53168;51.146;17.120;2023-06-01T16:58:28;33.32;20.15
66373;SHT30;53168;51.146;17.120;2023-06-01T17:01:04;33.28;20.22
66373;SHT30;53168;51.146;17.120;2023-06-01T17:03:44;33.07;20.20
66373;SHT30;53168;51.146;17.120;2023-06-01T17:06:21;32.97;20.45
66373;SHT30;53168;51.146;17.120;2023-06-01T17:08:56;32.90;20.42
66373;SHT30;53168;51.146;17.120;2023-06-01T17:11:32;32.68;20.44
66373;SHT30;53168;51.146;17.120;2023-06-01T17:14:06;32.25;20.60
66373;SHT30;53168;51.146;17.120;2023-06-01T17:16:41;32.03;20.74
66373;SHT30;53168;51.146;17.120;2023-06-01T17:19:15;31.86;20.97
66373;SHT30;53168;51.146;17.120;2023-06-01T17:21:49;31.08;21.35
66373;SHT30;53168;51.146;17.120;2023-06-01T17:24:23;30.74;21.66
66373;SHT30;53168;51.146;17.120;2023-06-01T17:26:59;30.34;21.91
66373;SHT30;53168;51.146;17.120;2023-06-01T17:29:33;29.40;22.62
66373;SHT30;53168;51.146;17.120;2023-06-01T17:32:24;28.56;23.44
66373;SHT30;53168;51.146;17.120;2023-06-01T17:34:58;27.91;23.75
66373;SHT30;53168;51.146;17.120;2023-06-01T17:37:32;27.34;24.28
66373;SHT30;53168;51.146;17.120;2023-06-01T17:40:08;26.88;24.59
66373;SHT30;53168;51.146;17.120;2023-06-01T17:42:43;26.46;25.23
66373;SHT30;53168;51.146;17.120;2023-06-01T17:45:17;26.07;25.60
66373;SHT30;53168;51.146;17.120;2023-06-01T17:47:51;25.76;25.90
66373;SHT30;53168;51.146;17.120;2023-06-01T17:50:28;25.50;26.14
66373;SHT30;53168;51.146;17.120;2023-06-01T17:53:19;25.24;26.51
66373;SHT30;53168;51.146;17.120;2023-06-01T17:56:11;25.01;26.99
66373;SHT30;53168;51.146;17.120;2023-06-01T17:58:56;24.82;27.10
66373;SHT30;53168;51.146;17.120;2023-06-01T18:02:07;24.64;27.62
66373;SHT30;53168;51.146;17.120;2023-06-01T18:05:01;24.45;27.84
66373;SHT30;53168;51.146;17.120;2023-06-01T18:07:53;24.28;27.91
66373;SHT30;53168;51.146;17.120;2023-06-01T18:10:31;24.16;28.11
66373;SHT30;53168;51.146;17.120;2023-06-01T18:13:06;24.02;28.29
66373;SHT30;53168;51.146;17.120;2023-06-01T18:15:44;23.87;28.55
66373;SHT30;53168;51.146;17.120;2023-06-01T18:18:19;23.72;29.16
66373;SHT30;53168;51.146;17.120;2023-06-01T18:20:54;23.60;29.24
66373;SHT30;53168;51.146;17.120;2023-06-01T18:23:35;23.47;29.31
66373;SHT30;53168;51.146;17.120;2023-06-01T18:26:36;23.32;29.60
66373;SHT30;53168;51.146;17.120;2023-06-01T18:29:11;23.21;29.92
66373;SHT30;53168;51.146;17.120;2023-06-01T18:32:15;23.09;30.04
66373;SHT30;53168;51.146;17.120;2023-06-01T18:34:49;22.97;30.20
66373;SHT30;53168;51.146;17.120;2023-06-01T18:37:24;22.85;30.65
66373;SHT30;53168;51.146;17.120;2023-06-01T18:39:58;22.74;30.69